createdAt,value
2022-09-24T00:01:33.453Z,12.07
2022-09-24T00:04:03.532Z,12.07
2022-09-24T00:06:35.667Z,12.04
2022-09-24T00:09:03.352Z,12.04
2022-09-24T00:11:32.189Z,12.03
2022-09-24T00:14:01.557Z,12.03
2022-09-24T00:16:31.820Z,12.02
2022-09-24T00:19:00.347Z,12.00
2022-09-24T00:21:30.885Z,12.00
2022-09-24T00:24:00.447Z,11.97
2022-09-24T00:26:46.293Z,11.97
2022-09-24T00:29:18.960Z,11.97
2022-09-24T00:31:47.471Z,11.96
2022-09-24T00:34:15.742Z,11.94
2022-09-24T00:36:44.857Z,11.93
2022-09-24T00:39:12.577Z,11.92
2022-09-24T00:41:44.918Z,11.91
2022-09-24T00:44:47.158Z,11.89
2022-09-24T00:47:19.088Z,11.89
2022-09-24T00:49:49.886Z,11.87
2022-09-24T00:52:19.800Z,11.85
2022-09-24T00:54:47.919Z,11.84
2022-09-24T00:57:15.741Z,11.83
2022-09-24T00:59:46.439Z,11.82
2022-09-24T01:02:14.295Z,11.80
2022-09-24T01:04:42.142Z,11.78
2022-09-24T01:07:10.126Z,11.75
2022-09-24T01:09:37.790Z,11.74
2022-09-24T01:12:15.353Z,11.71
2022-09-24T01:14:58.909Z,11.68
2022-09-24T01:17:33.759Z,11.67
2022-09-24T01:20:29.745Z,11.67
2022-09-24T01:23:12.439Z,11.65
2022-09-24T01:25:47.412Z,11.64
2022-09-24T01:28:34.615Z,11.65
2022-09-24T01:31:09.884Z,11.65
2022-09-24T01:33:37.811Z,11.65
2022-09-24T01:36:08.376Z,11.65
2022-09-24T01:38:41.132Z,11.64
2022-09-24T01:41:11.528Z,11.65
2022-09-24T01:43:39.994Z,11.64
2022-09-24T01:46:10.207Z,11.65
2022-09-24T01:48:38.605Z,11.64
2022-09-24T01:51:11.386Z,11.63
2022-09-24T01:53:46.075Z,11.63
2022-09-24T01:56:19.619Z,11.62
2022-09-24T01:58:50.839Z,11.60
2022-09-24T02:01:24.527Z,11.61
2022-09-24T02:03:56.826Z,11.57
2022-09-24T02:06:30.702Z,11.55
2022-09-24T02:08:59.327Z,11.52
2022-09-24T02:11:28.176Z,11.49
2022-09-24T02:14:00.772Z,11.47
2022-09-24T02:16:36.380Z,11.45
2022-09-24T02:19:07.748Z,11.41
2022-09-24T02:21:38.238Z,11.40
2022-09-24T02:24:10.861Z,11.39
2022-09-24T02:26:38.644Z,11.37
2022-09-24T02:29:06.809Z,11.38
2022-09-24T02:31:39.775Z,11.38
2022-09-24T02:34:22.453Z,11.37
2022-09-24T02:36:51.384Z,11.36
2022-09-24T02:39:19.395Z,11.35
2022-09-24T02:41:48.496Z,11.35
2022-09-24T02:44:16.807Z,11.33
2022-09-24T02:46:46.911Z,11.32
2022-09-24T02:49:15.297Z,11.32
2022-09-24T02:51:43.831Z,11.32
2022-09-24T02:54:12.311Z,11.31
2022-09-24T02:56:40.675Z,11.29
2022-09-24T02:59:08.809Z,11.28
2022-09-24T03:01:37.305Z,11.27
2022-09-24T03:04:07.627Z,11.25
2022-09-24T03:06:36.755Z,11.22
2022-09-24T03:09:04.815Z,11.21
2022-09-24T03:11:33.196Z,11.20
2022-09-24T03:14:01.429Z,11.18
2022-09-24T03:16:29.171Z,11.17
2022-09-24T03:18:57.202Z,11.14
2022-09-24T03:21:26.235Z,11.13
2022-09-24T03:23:53.949Z,11.11
2022-09-24T03:26:21.749Z,11.09
2022-09-24T03:28:49.457Z,11.06
2022-09-24T03:31:16.198Z,11.03
2022-09-24T03:33:45.849Z,11.01
2022-09-24T03:36:16.081Z,10.99
2022-09-24T03:38:46.946Z,10.98
2022-09-24T03:41:15.832Z,10.95
2022-09-24T03:43:43.947Z,10.93
2022-09-24T03:46:12.924Z,10.90
2022-09-24T03:48:42.442Z,10.88
2022-09-24T03:51:12.152Z,10.87
2022-09-24T03:53:40.226Z,10.83
2022-09-24T03:56:11.433Z,10.81
2022-09-24T03:58:39.883Z,10.79
2022-09-24T04:01:08.339Z,10.76
2022-09-24T04:03:37.025Z,10.76
2022-09-24T04:06:05.192Z,10.75
2022-09-24T04:08:33.324Z,10.73
2022-09-24T04:11:01.160Z,10.71
2022-09-24T04:13:30.506Z,10.69
2022-09-24T04:16:02.966Z,10.69
2022-09-24T04:18:31.569Z,10.66
2022-09-24T04:21:01.657Z,10.66
2022-09-24T04:23:31.449Z,10.63
2022-09-24T04:26:00.712Z,10.62
2022-09-24T04:28:29.956Z,10.61
2022-09-24T04:30:57.995Z,10.59
2022-09-24T04:33:25.781Z,10.60
2022-09-24T04:35:53.524Z,10.58
2022-09-24T04:38:21.401Z,10.58
2022-09-24T04:40:49.531Z,10.57
2022-09-24T04:43:19.058Z,10.56
2022-09-24T04:45:48.173Z,10.56
2022-09-24T04:48:15.863Z,10.55
2022-09-24T04:50:46.023Z,10.54
2022-09-24T04:53:14.335Z,10.52
2022-09-24T04:55:42.392Z,10.53
2022-09-24T04:58:11.134Z,10.51
2022-09-24T05:00:38.753Z,10.51
2022-09-24T05:03:07.833Z,10.50
2022-09-24T05:05:36.441Z,10.49
2022-09-24T05:08:04.816Z,10.48
2022-09-24T05:10:33.298Z,10.47
2022-09-24T05:13:02.304Z,10.47
2022-09-24T05:15:30.395Z,10.47
2022-09-24T05:17:58.238Z,10.47
2022-09-24T05:20:27.553Z,10.47
2022-09-24T05:22:55.479Z,10.48
2022-09-24T05:25:23.417Z,10.50
2022-09-24T05:27:51.656Z,10.51
2022-09-24T05:30:20.889Z,10.51
2022-09-24T05:32:51.867Z,10.52
2022-09-24T05:35:19.916Z,10.52
2022-09-24T05:37:49.637Z,10.53
2022-09-24T05:40:35.604Z,10.53
2022-09-24T05:43:04.306Z,10.53
2022-09-24T05:45:32.821Z,10.54
2022-09-24T05:48:00.874Z,10.55
2022-09-24T05:50:28.725Z,10.55
2022-09-24T05:52:57.714Z,10.56
2022-09-24T05:55:30.021Z,10.57
2022-09-24T05:58:04.289Z,10.58
2022-09-24T06:00:32.117Z,10.60
2022-09-24T06:03:07.839Z,10.60
2022-09-24T06:05:36.025Z,10.62
2022-09-24T06:08:06.192Z,10.63
2022-09-24T06:10:33.898Z,10.65
2022-09-24T06:13:01.643Z,10.68
2022-09-24T06:15:29.366Z,10.70
2022-09-24T06:17:57.328Z,10.72
2022-09-24T06:20:25.105Z,10.75
2022-09-24T06:22:56.048Z,10.78
2022-09-24T06:25:25.895Z,10.79
2022-09-24T06:28:00.677Z,10.82
2022-09-24T06:30:29.886Z,10.86
2022-09-24T06:33:02.792Z,10.87
2022-09-24T06:35:30.423Z,10.89
2022-09-24T06:37:58.104Z,10.92
2022-09-24T06:40:29.372Z,10.95
2022-09-24T06:42:58.978Z,10.96
2022-09-24T06:45:28.155Z,10.98
2022-09-24T06:47:57.499Z,11.00
2022-09-24T06:50:27.227Z,11.01
2022-09-24T06:52:54.868Z,11.02
2022-09-24T06:55:23.077Z,11.06
2022-09-24T06:57:52.112Z,11.08
2022-09-24T07:00:19.794Z,11.10
2022-09-24T07:02:52.694Z,11.12
2022-09-24T07:05:20.381Z,11.16
2022-09-24T07:07:48.105Z,11.17
2022-09-24T07:10:16.961Z,11.22
2022-09-24T07:12:44.621Z,11.27
2022-09-24T07:15:13.605Z,11.30
2022-09-24T07:17:41.225Z,11.32
2022-09-24T07:20:09.935Z,11.36
2022-09-24T07:22:40.195Z,11.41
2022-09-24T07:25:09.682Z,11.47
2022-09-24T07:27:37.309Z,11.53
2022-09-24T07:30:07.088Z,11.57
2022-09-24T07:32:36.112Z,11.62
2022-09-24T07:35:03.958Z,11.66
2022-09-24T07:37:32.704Z,11.70
2022-09-24T07:40:00.529Z,11.74
2022-09-24T07:42:29.123Z,11.77
2022-09-24T07:44:57.200Z,11.81
2022-09-24T07:47:24.791Z,11.84
2022-09-24T07:49:54.043Z,11.87
2022-09-24T07:52:22.118Z,11.91
2022-09-24T07:54:49.940Z,11.92
2022-09-24T07:57:17.553Z,11.96
2022-09-24T07:59:45.345Z,12.02
2022-09-24T08:02:17.767Z,12.06
2022-09-24T08:04:45.831Z,12.14
2022-09-24T08:07:15.041Z,12.21
2022-09-24T08:09:42.687Z,12.29
2022-09-24T08:12:11.063Z,12.36
2022-09-24T08:14:38.729Z,12.44
2022-09-24T08:17:06.355Z,12.52
2022-09-24T08:19:34.457Z,12.59
2022-09-24T08:22:02.170Z,12.69
2022-09-24T08:24:31.857Z,12.77
2022-09-24T08:26:59.516Z,12.85
2022-09-24T08:29:27.225Z,12.96
2022-09-24T08:31:54.992Z,13.07
2022-09-24T08:34:22.997Z,13.18
2022-09-24T08:36:50.716Z,13.29
2022-09-24T08:39:18.352Z,13.41
2022-09-24T08:41:56.030Z,13.52
2022-09-24T08:44:49.429Z,13.63
2022-09-24T08:47:25.951Z,13.73
2022-09-24T08:50:08.117Z,13.81
2022-09-24T08:52:49.898Z,13.90
2022-09-24T08:55:22.290Z,13.95
2022-09-24T08:57:58.963Z,13.99
2022-09-24T09:00:26.734Z,14.04
2022-09-24T09:02:59.421Z,14.13
2022-09-24T09:05:49.468Z,14.23
2022-09-24T09:08:47.153Z,14.34
2022-09-24T09:11:16.221Z,14.48
2022-09-24T09:13:52.873Z,14.56
2022-09-24T09:16:26.206Z,14.68
2022-09-24T09:19:01.148Z,14.80
2022-09-24T09:21:35.744Z,14.95
2022-09-24T09:24:05.496Z,15.15
2022-09-24T09:26:33.234Z,15.35
2022-09-24T09:29:02.732Z,15.61
2022-09-24T09:31:43.011Z,15.66
2022-09-24T09:34:37.685Z,15.76
2022-09-24T09:37:15.438Z,15.90
2022-09-24T09:39:50.874Z,16.15
2022-09-24T09:42:29.531Z,16.48
2022-09-24T09:45:01.746Z,16.76
2022-09-24T09:47:44.316Z,16.94
2022-09-24T09:50:27.176Z,17.25
2022-09-24T09:52:55.752Z,17.38
2022-09-24T09:55:26.399Z,17.45
2022-09-24T09:57:54.947Z,17.50
2022-09-24T10:00:36.537Z,17.54
2022-09-24T10:03:04.995Z,17.60
2022-09-24T10:05:32.970Z,17.64
2022-09-24T10:08:00.641Z,17.74
2022-09-24T10:10:29.849Z,17.90
2022-09-24T10:13:08.883Z,18.01
2022-09-24T10:15:49.464Z,18.19
2022-09-24T10:18:18.208Z,18.35
2022-09-24T10:20:49.564Z,18.52
2022-09-24T10:23:21.335Z,18.67
2022-09-24T10:25:55.839Z,18.86
2022-09-24T10:28:42.656Z,19.00
2022-09-24T10:31:16.064Z,19.26
2022-09-24T10:33:46.593Z,19.48
2022-09-24T10:36:17.013Z,19.71
2022-09-24T10:38:44.740Z,19.84
2022-09-24T10:41:27.000Z,19.95
2022-09-24T10:43:56.155Z,19.93
2022-09-24T10:47:01.792Z,20.02
2022-09-24T10:49:42.814Z,20.15
2022-09-24T10:52:33.750Z,20.25
2022-09-24T10:55:16.037Z,20.32
2022-09-24T10:57:56.939Z,20.39
2022-09-24T11:00:28.618Z,20.46
2022-09-24T11:03:26.014Z,20.59
2022-09-24T11:05:55.369Z,20.72
2022-09-24T11:08:35.701Z,20.81
2022-09-24T11:11:13.332Z,20.99
2022-09-24T11:13:51.212Z,21.16
2022-09-24T11:16:47.585Z,21.41
2022-09-24T11:19:30.225Z,21.66
2022-09-24T11:22:09.364Z,21.88
2022-09-24T11:25:07.494Z,22.17
2022-09-24T11:27:56.488Z,22.45
2022-09-24T11:30:29.308Z,22.57
2022-09-24T11:33:12.892Z,22.65
2022-09-24T11:36:06.344Z,22.77
2022-09-24T11:38:49.067Z,22.92
2022-09-24T11:41:26.919Z,23.20
2022-09-24T11:44:17.524Z,23.42
2022-09-24T11:46:59.986Z,23.68
2022-09-24T11:49:49.261Z,23.87
2022-09-24T11:52:27.364Z,24.11
2022-09-24T11:55:05.825Z,24.31
2022-09-24T11:57:37.817Z,24.52
2022-09-24T12:00:09.525Z,24.78
2022-09-24T12:02:42.368Z,24.99
2022-09-24T12:05:15.544Z,25.14
2022-09-24T12:07:50.656Z,25.29
2022-09-24T12:10:26.517Z,25.43
2022-09-24T12:12:58.936Z,25.51
2022-09-24T12:15:34.294Z,25.64
2022-09-24T12:18:08.249Z,25.71
2022-09-24T12:20:45.124Z,25.83
2022-09-24T12:23:18.348Z,25.82
2022-09-24T12:25:49.402Z,25.96
2022-09-24T12:28:39.305Z,26.11
2022-09-24T12:31:32.275Z,26.31
2022-09-24T12:34:06.901Z,26.56
2022-09-24T12:36:56.046Z,26.79
2022-09-24T12:39:29.246Z,26.99
2022-09-24T12:42:02.624Z,27.05
2022-09-24T12:44:40.348Z,27.12
2022-09-24T12:47:17.862Z,27.16
2022-09-24T12:49:52.606Z,27.12
2022-09-24T12:52:25.921Z,27.14
2022-09-24T12:55:02.224Z,27.27
2022-09-24T12:57:34.641Z,27.36
2022-09-24T13:00:04.917Z,27.51
2022-09-24T13:02:46.216Z,27.63
2022-09-24T13:05:28.160Z,27.69
2022-09-24T13:07:59.040Z,27.69
2022-09-24T13:10:30.776Z,27.66
2022-09-24T13:13:01.354Z,27.43
2022-09-24T13:15:34.361Z,27.16
2022-09-24T13:18:05.006Z,26.95
2022-09-24T13:20:34.477Z,26.67
2022-09-24T13:23:15.851Z,26.53
2022-09-24T13:25:55.801Z,26.54
2022-09-24T13:28:35.798Z,26.48
2022-09-24T13:31:15.564Z,26.43
2022-09-24T13:33:46.213Z,26.30
2022-09-24T13:36:27.214Z,26.24
2022-09-24T13:39:02.113Z,26.04
2022-09-24T13:41:43.457Z,25.88
2022-09-24T13:44:17.159Z,25.72
2022-09-24T13:46:47.531Z,25.56
2022-09-24T13:49:19.561Z,25.55
2022-09-24T13:51:55.208Z,25.51
2022-09-24T13:54:27.329Z,25.38
2022-09-24T13:57:21.692Z,25.18
2022-09-24T13:59:49.357Z,24.99
2022-09-24T14:02:28.692Z,24.80
2022-09-24T14:04:58.549Z,24.55
2022-09-24T14:07:28.581Z,24.38
2022-09-24T14:10:04.195Z,24.21
2022-09-24T14:12:33.390Z,23.98
2022-09-24T14:15:01.036Z,23.80
2022-09-24T14:17:28.970Z,23.61
2022-09-24T14:19:57.849Z,23.48
2022-09-24T14:22:30.184Z,23.29
2022-09-24T14:25:01.339Z,23.08
2022-09-24T14:27:32.389Z,22.92
2022-09-24T14:30:03.629Z,22.77
2022-09-24T14:32:33.818Z,22.64
2022-09-24T14:35:06.397Z,22.47
2022-09-24T14:37:37.366Z,22.36
2022-09-24T14:40:08.583Z,22.32
2022-09-24T14:42:41.259Z,22.22
2022-09-24T14:45:19.116Z,22.10
2022-09-24T14:47:46.796Z,21.99
2022-09-24T14:50:28.770Z,21.88
2022-09-24T14:52:57.833Z,21.71
2022-09-24T14:55:38.326Z,21.58
2022-09-24T14:58:06.062Z,21.48
2022-09-24T15:00:38.984Z,21.34
2022-09-24T15:03:13.808Z,21.20
2022-09-24T15:05:41.624Z,21.09
2022-09-24T15:08:19.980Z,20.99
2022-09-24T15:10:54.006Z,20.91
2022-09-24T15:13:25.078Z,20.85
2022-09-24T15:16:05.822Z,20.77
2022-09-24T15:18:34.684Z,20.71
2022-09-24T15:21:06.237Z,20.66
2022-09-24T15:23:34.247Z,20.61
2022-09-24T15:26:01.975Z,20.48
2022-09-24T15:28:30.003Z,20.33
2022-09-24T15:30:58.274Z,20.23
2022-09-24T15:33:27.656Z,20.14
2022-09-24T15:35:55.472Z,20.06
2022-09-24T15:38:23.631Z,20.00
2022-09-24T15:40:53.758Z,19.90
2022-09-24T15:43:23.518Z,19.85
2022-09-24T15:45:52.133Z,19.75
2022-09-24T15:48:20.083Z,19.66
2022-09-24T15:55:08.226Z,19.40
2022-09-24T15:57:38.131Z,19.30
2022-09-24T16:00:07.535Z,19.20
2022-09-24T16:02:35.602Z,19.10
2022-09-24T16:16:15.700Z,18.58
2022-09-24T16:18:43.470Z,18.47
2022-09-24T16:21:11.116Z,18.38
2022-09-24T16:23:38.760Z,18.29
2022-09-24T16:26:07.222Z,18.21
2022-09-24T16:28:34.976Z,18.11
2022-09-24T16:31:07.360Z,18.03
2022-09-24T16:33:40.004Z,17.93
2022-09-24T16:36:08.799Z,17.86
2022-09-24T16:38:36.608Z,17.80
2022-09-24T16:41:05.423Z,17.72
2022-09-24T16:43:33.529Z,17.65
2022-09-24T16:46:03.678Z,17.58
2022-09-24T16:48:32.226Z,17.50
2022-09-24T16:51:05.856Z,17.42
2022-09-24T16:53:34.182Z,17.33
2022-09-24T16:56:07.835Z,17.25
2022-09-24T16:58:36.393Z,17.18
2022-09-24T17:01:08.122Z,17.10
2022-09-24T17:03:36.212Z,17.02
2022-09-24T17:06:05.797Z,16.93
2022-09-24T17:08:48.580Z,16.86
2022-09-24T17:11:16.790Z,16.81
2022-09-24T17:13:47.401Z,16.74
2022-09-24T17:16:15.837Z,16.70
2022-09-24T17:18:43.886Z,16.64
2022-09-24T17:21:14.676Z,16.61
2022-09-24T17:23:42.357Z,16.54
2022-09-24T17:26:12.538Z,16.50
2022-09-24T17:28:42.112Z,16.44
2022-09-24T17:31:11.117Z,16.40
2022-09-24T17:33:43.341Z,16.35
2022-09-24T17:36:15.812Z,16.29
2022-09-24T17:38:43.938Z,16.24
2022-09-24T17:41:13.691Z,16.21
2022-09-24T17:43:42.573Z,16.15
2022-09-24T17:46:14.600Z,16.09
2022-09-24T17:48:45.385Z,16.01
2022-09-24T17:51:17.142Z,15.96
2022-09-24T17:53:44.805Z,15.91
2022-09-24T17:56:13.689Z,15.86
2022-09-24T17:58:43.546Z,15.82
2022-09-24T18:01:12.956Z,15.77
2022-09-24T18:03:41.554Z,15.75
2022-09-24T18:06:11.163Z,15.71
2022-09-24T18:08:41.953Z,15.66
2022-09-24T18:11:11.374Z,15.63
2022-09-24T18:13:39.227Z,15.62
2022-09-24T18:16:08.953Z,15.60
2022-09-24T18:18:37.189Z,15.58
2022-09-24T18:21:07.072Z,15.55
2022-09-24T18:23:35.781Z,15.52
2022-09-24T18:26:13.266Z,15.51
2022-09-24T18:28:42.321Z,15.48
2022-09-24T18:31:11.304Z,15.45
2022-09-24T18:33:40.917Z,15.43
2022-09-24T18:36:11.173Z,15.40
2022-09-24T18:38:39.277Z,15.36
2022-09-24T18:41:09.663Z,15.34
2022-09-24T18:43:38.784Z,15.31
2022-09-24T18:46:08.415Z,15.29
2022-09-24T18:48:36.723Z,15.26
2022-09-24T18:51:05.332Z,15.24
2022-09-24T18:53:34.866Z,15.22
2022-09-24T18:56:05.809Z,15.19
2022-09-24T18:58:33.579Z,15.16
2022-09-24T19:01:07.729Z,15.12
2022-09-24T19:03:36.323Z,15.09
2022-09-24T19:06:06.430Z,15.07
2022-09-24T19:08:36.361Z,15.05
2022-09-24T19:11:09.241Z,15.02
2022-09-24T19:13:39.053Z,15.00
2022-09-24T19:16:10.536Z,14.98
2022-09-24T19:18:39.116Z,14.96
2022-09-24T19:21:08.842Z,14.94
2022-09-24T19:23:38.205Z,14.92
2022-09-24T19:26:07.476Z,14.90
2022-09-24T19:28:36.618Z,14.88
2022-09-24T19:31:06.310Z,14.86
2022-09-24T19:33:35.389Z,14.82
2022-09-24T19:36:04.653Z,14.78
2022-09-24T19:38:35.636Z,14.75
2022-09-24T19:41:05.541Z,14.73
2022-09-24T19:43:34.217Z,14.69
2022-09-24T19:46:03.549Z,14.65
2022-09-24T19:48:32.959Z,14.63
2022-09-24T19:51:04.367Z,14.59
2022-09-24T19:53:32.453Z,14.56
2022-09-24T19:56:00.057Z,14.54
2022-09-24T19:58:28.397Z,14.51
2022-09-24T20:00:56.128Z,14.48
2022-09-24T20:03:25.311Z,14.46
2022-09-24T20:05:52.946Z,14.43
2022-09-24T20:08:23.416Z,14.41
2022-09-24T20:10:51.257Z,14.40
2022-09-24T20:13:20.172Z,14.38
2022-09-24T20:15:47.881Z,14.34
2022-09-24T20:18:15.553Z,14.34
2022-09-24T20:20:43.168Z,14.31
2022-09-24T20:23:10.846Z,14.29
2022-09-24T20:25:57.493Z,14.26
2022-09-24T20:28:25.123Z,14.25
2022-09-24T20:30:53.964Z,14.22
2022-09-24T20:33:21.753Z,14.20
2022-09-24T20:35:50.216Z,14.18
2022-09-24T20:38:18.725Z,14.16
2022-09-24T20:40:47.748Z,14.13
2022-09-24T20:43:15.466Z,14.12
2022-09-24T20:45:43.427Z,14.10
2022-09-24T20:48:12.163Z,14.07
2022-09-24T20:50:39.817Z,14.05
2022-09-24T20:53:07.671Z,14.03
2022-09-24T20:55:35.963Z,14.00
2022-09-24T20:58:04.950Z,13.99
2022-09-24T21:00:35.842Z,13.99
2022-09-24T21:03:19.933Z,13.97
2022-09-24T21:05:52.059Z,13.94
2022-09-24T21:08:19.697Z,13.91
2022-09-24T21:10:47.441Z,13.89
2022-09-24T21:13:16.469Z,13.86
2022-09-24T21:15:44.126Z,13.84
2022-09-24T21:18:22.960Z,13.82
2022-09-24T21:20:51.800Z,13.80
2022-09-24T21:23:19.892Z,13.78
2022-09-24T21:25:54.295Z,13.76
2022-09-24T21:28:24.251Z,13.75
2022-09-24T21:31:03.495Z,13.72
2022-09-24T21:33:32.354Z,13.69
2022-09-24T21:36:01.300Z,13.64
2022-09-24T21:38:29.235Z,13.63
2022-09-24T21:40:57.847Z,13.60
2022-09-24T21:43:29.853Z,13.57
2022-09-24T21:46:03.000Z,13.54
2022-09-24T21:48:31.273Z,13.51
2022-09-24T21:51:03.818Z,13.49
2022-09-24T21:53:31.527Z,13.46
2022-09-24T21:55:59.215Z,13.43
2022-09-24T21:58:29.242Z,13.38
2022-09-24T22:00:57.019Z,13.37
2022-09-24T22:03:25.166Z,13.35
2022-09-24T22:05:52.792Z,13.32
2022-09-24T22:08:27.128Z,13.29
2022-09-24T22:11:02.510Z,13.27
2022-09-24T22:13:32.285Z,13.24
2022-09-24T22:16:00.313Z,13.22
2022-09-24T22:18:28.520Z,13.20
2022-09-24T22:20:56.926Z,13.17
2022-09-24T22:23:24.930Z,13.13
2022-09-24T22:25:56.231Z,13.10
2022-09-24T22:28:25.116Z,13.07
2022-09-24T22:30:55.512Z,13.03
2022-09-24T22:33:41.266Z,13.01
2022-09-24T22:36:09.808Z,12.96
2022-09-24T22:38:37.801Z,12.94
2022-09-24T22:41:06.830Z,12.93
2022-09-24T22:43:34.725Z,12.89
2022-09-24T22:46:05.947Z,12.87
2022-09-24T22:48:34.413Z,12.85
2022-09-24T22:51:02.619Z,12.84
2022-09-24T22:53:30.331Z,12.82
2022-09-24T22:56:04.290Z,12.81
2022-09-24T22:58:32.588Z,12.80
2022-09-24T23:01:08.610Z,12.77
2022-09-24T23:03:36.693Z,12.78
2022-09-24T23:06:05.974Z,12.77
2022-09-24T23:08:34.525Z,12.76
2022-09-24T23:11:07.628Z,12.77
2022-09-24T23:13:35.987Z,12.75
2022-09-24T23:16:12.886Z,12.75
2022-09-24T23:18:41.601Z,12.75
2022-09-24T23:21:11.207Z,12.73
2022-09-24T23:23:39.337Z,12.72
2022-09-24T23:26:11.068Z,12.73
2022-09-24T23:28:42.259Z,12.72
2022-09-24T23:31:13.073Z,12.71
2022-09-24T23:33:42.171Z,12.70
2022-09-24T23:36:12.165Z,12.71
2022-09-24T23:38:40.525Z,12.71
2022-09-24T23:41:08.941Z,12.70
2022-09-24T23:43:37.040Z,12.70
2022-09-24T23:46:05.358Z,12.69
2022-09-24T23:48:34.651Z,12.68
2022-09-24T23:51:03.302Z,12.67
2022-09-24T23:53:31.726Z,12.67
2022-09-24T23:55:59.388Z,12.68
2022-09-24T23:58:27.543Z,12.66
